createdAt,value
2019-06-20T00:00:36.642Z,20.60
2019-06-20T00:01:41.407Z,20.70
2019-06-20T00:02:46.861Z,20.70
2019-06-20T00:03:51.987Z,20.60
2019-06-20T00:04:57.447Z,20.60
2019-06-20T00:06:08.005Z,20.70
2019-06-20T00:07:14.329Z,20.60
2019-06-20T00:08:19.361Z,20.60
2019-06-20T00:09:24.922Z,20.60
2019-06-20T00:10:29.820Z,20.60
2019-06-20T00:11:35.523Z,20.50
2019-06-20T00:12:40.599Z,20.50
2019-06-20T00:13:46.360Z,20.60
2019-06-20T00:14:51.613Z,20.60
2019-06-20T00:15:57.425Z,20.60
2019-06-20T00:17:02.781Z,20.50
2019-06-20T00:18:08.441Z,20.60
2019-06-20T00:19:13.300Z,20.60
2019-06-20T00:20:19.158Z,20.60
2019-06-20T00:21:24.109Z,20.50
2019-06-20T00:22:29.452Z,20.50
2019-06-20T00:23:34.463Z,20.50
2019-06-20T00:24:39.732Z,20.50
2019-06-20T00:25:45.120Z,20.60
2019-06-20T00:26:51.083Z,20.60
2019-06-20T00:27:56.110Z,20.50
2019-06-20T00:29:01.805Z,20.60
2019-06-20T00:30:07.236Z,20.60
2019-06-20T00:31:12.756Z,20.60
2019-06-20T00:32:20.719Z,20.60
2019-06-20T00:33:26.265Z,20.60
2019-06-20T00:34:31.167Z,20.60
2019-06-20T00:35:36.539Z,20.60
2019-06-20T00:36:41.362Z,20.60
2019-06-20T00:37:48.027Z,20.50
2019-06-20T00:38:52.987Z,20.60
2019-06-20T00:40:00.328Z,20.60
2019-06-20T00:41:05.220Z,20.60
2019-06-20T00:42:10.447Z,20.50
2019-06-20T00:43:17.965Z,20.50
2019-06-20T00:44:22.230Z,20.50
2019-06-20T00:45:26.985Z,20.50
2019-06-20T00:46:32.643Z,20.50
2019-06-20T00:47:37.476Z,20.50
2019-06-20T00:48:42.768Z,20.40
2019-06-20T00:49:47.456Z,20.40
2019-06-20T00:50:53.092Z,20.40
2019-06-20T00:51:57.814Z,20.30
2019-06-20T00:53:03.358Z,20.30
2019-06-20T00:54:08.118Z,20.20
2019-06-20T00:55:14.787Z,20.20
2019-06-20T00:56:19.578Z,20.20
2019-06-20T00:57:24.927Z,20.20
2019-06-20T00:58:30.133Z,20.20
2019-06-20T00:59:35.555Z,20.20
2019-06-20T01:00:40.662Z,20.20
2019-06-20T01:01:47.793Z,20.20
2019-06-20T01:02:53.853Z,20.20
2019-06-20T01:03:59.174Z,20.20
2019-06-20T01:05:04.120Z,20.30
2019-06-20T01:06:09.370Z,20.30
2019-06-20T01:07:14.307Z,20.30
2019-06-20T01:08:19.639Z,20.30
2019-06-20T01:09:24.358Z,20.30
2019-06-20T01:10:29.661Z,20.30
2019-06-20T01:11:34.370Z,20.30
2019-06-20T01:12:39.800Z,20.30
2019-06-20T01:13:44.619Z,20.30
2019-06-20T01:14:49.864Z,20.30
2019-06-20T01:15:54.655Z,20.20
2019-06-20T01:16:59.953Z,20.20
2019-06-20T01:18:04.945Z,20.20
2019-06-20T01:19:10.239Z,20.20
2019-06-20T01:20:15.162Z,20.20
2019-06-20T01:21:20.732Z,20.20
2019-06-20T01:22:26.532Z,20.20
2019-06-20T01:23:33.005Z,20.10
2019-06-20T01:24:42.845Z,20.20
2019-06-20T01:25:48.220Z,20.20
2019-06-20T01:26:59.323Z,20.20
2019-06-20T01:28:04.591Z,20.20
2019-06-20T01:29:09.316Z,20.20
2019-06-20T01:30:14.855Z,20.20
2019-06-20T01:31:20.094Z,20.20
2019-06-20T01:32:25.416Z,20.20
2019-06-20T01:33:30.404Z,20.20
2019-06-20T01:34:35.770Z,20.20
2019-06-20T01:35:40.488Z,20.10
2019-06-20T01:36:45.929Z,20.10
2019-06-20T01:37:50.654Z,20.10
2019-06-20T01:38:55.934Z,20.10
2019-06-20T01:40:00.760Z,20.10
2019-06-20T01:41:06.524Z,20.10
2019-06-20T01:42:11.288Z,20.10
2019-06-20T01:43:16.966Z,20.10
2019-06-20T01:44:21.836Z,20.10
2019-06-20T01:45:27.164Z,20.10
2019-06-20T01:46:31.801Z,20.10
2019-06-20T01:47:37.062Z,20.10
2019-06-20T01:48:41.793Z,20.10
2019-06-20T01:49:47.339Z,20.10
2019-06-20T01:50:51.999Z,20.10
2019-06-20T01:51:57.259Z,20.10
2019-06-20T01:53:01.956Z,20.10
2019-06-20T01:54:07.300Z,20.00
2019-06-20T01:55:12.114Z,20.00
2019-06-20T01:56:17.370Z,20.10
2019-06-20T01:57:22.055Z,20.10
2019-06-20T01:58:27.292Z,20.10
2019-06-20T01:59:32.100Z,20.10
2019-06-20T02:00:46.864Z,20.00
2019-06-20T02:01:51.546Z,20.00
2019-06-20T02:02:56.781Z,20.00
2019-06-20T02:04:01.464Z,19.90
2019-06-20T02:05:07.512Z,20.00
2019-06-20T02:06:12.169Z,20.00
2019-06-20T02:07:17.780Z,20.00
2019-06-20T02:08:22.503Z,19.90
2019-06-20T02:09:27.740Z,19.90
2019-06-20T02:10:32.539Z,19.80
2019-06-20T02:11:38.174Z,19.80
2019-06-20T02:12:42.830Z,19.70
2019-06-20T02:13:48.140Z,19.70
2019-06-20T02:14:52.834Z,19.70
2019-06-20T02:15:58.143Z,19.70
2019-06-20T02:17:02.828Z,19.70
2019-06-20T02:18:09.012Z,19.70
2019-06-20T02:19:14.234Z,19.70
2019-06-20T02:20:49.020Z,19.70
2019-06-20T02:21:53.836Z,19.70
2019-06-20T02:22:59.182Z,19.70
2019-06-20T02:24:04.316Z,19.70
2019-06-20T02:25:10.374Z,19.70
2019-06-20T02:26:15.036Z,19.70
2019-06-20T02:27:22.017Z,19.70
2019-06-20T02:28:27.006Z,19.60
2019-06-20T02:29:32.271Z,19.60
2019-06-20T02:30:36.950Z,19.60
2019-06-20T02:31:42.241Z,19.60
2019-06-20T02:32:46.944Z,19.50
2019-06-20T02:33:52.176Z,19.50
2019-06-20T02:34:57.064Z,19.50
2019-06-20T02:36:02.366Z,19.40
2019-06-20T02:37:07.020Z,19.50
2019-06-20T02:38:12.305Z,19.50
2019-06-20T02:39:17.778Z,19.40
2019-06-20T02:40:23.160Z,19.40
2019-06-20T02:41:27.869Z,19.40
2019-06-20T02:42:33.693Z,19.40
2019-06-20T02:43:38.523Z,19.30
2019-06-20T02:44:43.837Z,19.30
2019-06-20T02:45:48.540Z,19.30
2019-06-20T02:46:53.789Z,19.30
2019-06-20T02:47:59.024Z,19.30
2019-06-20T02:49:04.460Z,19.30
2019-06-20T02:50:09.544Z,19.30
2019-06-20T02:51:14.896Z,19.30
2019-06-20T02:54:34.432Z,19.20
2019-06-20T02:55:39.894Z,19.30
2019-06-20T02:56:44.663Z,19.30
2019-06-20T02:57:49.899Z,19.20
2019-06-20T02:58:54.544Z,19.30
2019-06-20T02:59:59.992Z,19.30
2019-06-20T03:01:05.798Z,19.30
2019-06-20T03:02:11.203Z,19.30
2019-06-20T03:03:15.896Z,19.20
2019-06-20T03:04:21.135Z,19.30
2019-06-20T03:05:26.024Z,19.30
2019-06-20T03:06:31.315Z,19.30
2019-06-20T03:07:36.409Z,19.30
2019-06-20T03:08:41.632Z,19.30
2019-06-20T03:09:46.323Z,19.40
2019-06-20T03:10:51.753Z,19.40
2019-06-20T03:11:56.831Z,19.40
2019-06-20T03:13:02.168Z,19.30
2019-06-20T03:14:06.815Z,19.30
2019-06-20T03:15:12.283Z,19.20
2019-06-20T03:16:16.986Z,19.10
2019-06-20T03:17:22.205Z,19.10
2019-06-20T03:18:26.846Z,19.10
2019-06-20T03:19:32.099Z,19.10
2019-06-20T03:20:39.969Z,19.10
2019-06-20T03:21:45.254Z,19.20
2019-06-20T03:22:50.355Z,19.20
2019-06-20T03:23:55.657Z,19.20
2019-06-20T03:25:00.267Z,19.20
2019-06-20T03:26:05.739Z,19.20
2019-06-20T03:27:10.445Z,19.20
2019-06-20T03:28:19.079Z,19.10
2019-06-20T03:29:24.193Z,19.20
2019-06-20T03:30:29.542Z,19.20
2019-06-20T03:31:34.178Z,19.20
2019-06-20T03:32:39.418Z,19.30
2019-06-20T03:33:44.072Z,19.30
2019-06-20T03:34:49.231Z,19.30
2019-06-20T03:35:53.880Z,19.30
2019-06-20T03:36:59.111Z,19.30
2019-06-20T03:38:03.829Z,19.30
2019-06-20T03:39:09.071Z,19.40
2019-06-20T03:40:13.913Z,19.40
2019-06-20T03:41:19.563Z,19.40
2019-06-20T03:42:24.201Z,19.40
2019-06-20T03:43:29.538Z,19.50
2019-06-20T03:44:34.207Z,19.50
2019-06-20T03:45:39.507Z,19.40
2019-06-20T03:46:44.231Z,19.40
2019-06-20T03:47:49.944Z,19.40
2019-06-20T03:48:54.631Z,19.40
2019-06-20T03:49:59.899Z,19.30
2019-06-20T03:51:04.638Z,19.30
2019-06-20T03:52:09.855Z,19.20
2019-06-20T03:53:15.179Z,19.20
2019-06-20T03:54:20.527Z,19.20
2019-06-20T03:55:25.327Z,19.20
2019-06-20T03:56:31.151Z,19.20
2019-06-20T03:57:36.821Z,19.20
2019-06-20T03:58:42.210Z,19.20
2019-06-20T03:59:46.963Z,19.20
2019-06-20T04:00:52.531Z,19.10
2019-06-20T04:01:57.692Z,19.10
2019-06-20T04:03:03.195Z,19.10
2019-06-20T04:04:07.942Z,19.10
2019-06-20T04:05:13.376Z,19.10
2019-06-20T04:06:18.023Z,19.20
2019-06-20T04:07:23.408Z,19.20
2019-06-20T04:08:27.974Z,19.20
2019-06-20T04:09:33.306Z,19.20
2019-06-20T04:10:38.600Z,19.20
2019-06-20T04:11:43.854Z,19.20
2019-06-20T04:12:48.522Z,19.20
2019-06-20T04:13:53.775Z,19.20
2019-06-20T04:14:58.811Z,19.20
2019-06-20T04:16:04.075Z,19.20
2019-06-20T04:17:08.757Z,19.20
2019-06-20T04:18:14.334Z,19.20
2019-06-20T04:19:18.991Z,19.20
2019-06-20T04:20:24.331Z,19.20
2019-06-20T04:21:29.616Z,19.10
2019-06-20T04:22:34.910Z,19.10
2019-06-20T04:23:39.613Z,19.10
2019-06-20T04:24:44.839Z,19.10
2019-06-20T04:25:49.516Z,19.10
2019-06-20T04:26:54.779Z,19.10
2019-06-20T04:27:59.423Z,19.20
2019-06-20T04:29:05.282Z,19.20
2019-06-20T04:30:10.045Z,19.20
2019-06-20T04:31:15.523Z,19.20
2019-06-20T04:32:20.167Z,19.10
2019-06-20T04:33:25.419Z,19.10
2019-06-20T04:34:30.098Z,19.10
2019-06-20T04:35:35.390Z,19.10
2019-06-20T04:36:40.106Z,19.10
2019-06-20T04:37:45.337Z,19.10
2019-06-20T04:38:50.129Z,19.10
2019-06-20T04:39:55.367Z,19.10
2019-06-20T04:41:00.068Z,19.10
2019-06-20T04:42:05.338Z,19.10
2019-06-20T04:43:10.036Z,19.10
2019-06-20T04:44:15.243Z,19.00
2019-06-20T04:45:38.415Z,19.10
2019-06-20T04:46:48.597Z,19.10
2019-06-20T04:47:53.284Z,19.20
2019-06-20T04:48:58.516Z,19.20
2019-06-20T04:50:03.347Z,19.20
2019-06-20T04:51:09.039Z,19.20
2019-06-20T04:52:13.716Z,19.20
2019-06-20T04:53:18.947Z,19.20
2019-06-20T04:54:23.637Z,19.20
2019-06-20T04:55:28.894Z,19.20
2019-06-20T04:56:33.564Z,19.20
2019-06-20T04:57:39.163Z,19.20
2019-06-20T04:58:43.846Z,19.20
2019-06-20T04:59:51.418Z,19.20
2019-06-20T05:00:56.112Z,19.30
2019-06-20T05:02:01.418Z,19.30
2019-06-20T05:03:06.072Z,19.30
2019-06-20T05:04:11.292Z,19.30
2019-06-20T05:05:16.058Z,19.30
2019-06-20T05:06:21.418Z,19.20
2019-06-20T05:07:26.099Z,19.20
2019-06-20T05:08:31.740Z,19.20
2019-06-20T05:09:36.383Z,19.20
2019-06-20T05:10:41.671Z,19.20
2019-06-20T05:11:46.488Z,19.30
2019-06-20T05:12:51.742Z,19.30
2019-06-20T05:13:56.535Z,19.30
2019-06-20T05:15:02.435Z,19.30
2019-06-20T05:16:07.171Z,19.30
2019-06-20T05:17:12.487Z,19.30
2019-06-20T05:18:17.312Z,19.30
2019-06-20T05:19:23.113Z,19.20
2019-06-20T05:20:27.818Z,19.20
2019-06-20T05:21:33.201Z,19.20
2019-06-20T05:22:37.937Z,19.20
2019-06-20T05:23:43.561Z,19.20
2019-06-20T05:24:48.214Z,19.20
2019-06-20T05:25:53.534Z,19.20
2019-06-20T05:27:04.115Z,19.20
2019-06-20T05:28:09.491Z,19.10
2019-06-20T05:29:14.207Z,19.20
2019-06-20T05:30:19.747Z,19.20
2019-06-20T05:31:24.445Z,19.20
2019-06-20T05:32:29.867Z,19.20
2019-06-20T05:33:34.764Z,19.20
2019-06-20T05:34:40.136Z,19.20
2019-06-20T05:35:44.818Z,19.20
2019-06-20T05:36:50.171Z,19.20
2019-06-20T05:37:55.260Z,19.20
2019-06-20T05:39:00.485Z,19.20
2019-06-20T05:40:07.348Z,19.20
2019-06-20T05:41:12.591Z,19.20
2019-06-20T05:42:17.255Z,19.20
2019-06-20T05:43:22.584Z,19.30
2019-06-20T05:44:27.265Z,19.30
2019-06-20T05:45:32.539Z,19.30
2019-06-20T05:46:37.238Z,19.30
2019-06-20T05:47:42.673Z,19.30
2019-06-20T05:48:47.386Z,19.30
2019-06-20T05:49:52.618Z,19.30
2019-06-20T05:50:57.765Z,19.20
2019-06-20T05:52:02.987Z,19.20
2019-06-20T05:53:07.800Z,19.20
2019-06-20T05:54:13.145Z,19.20
2019-06-20T05:55:18.150Z,19.20
2019-06-20T05:56:23.795Z,19.20
2019-06-20T05:57:28.451Z,19.20
2019-06-20T05:58:33.681Z,19.20
2019-06-20T05:59:38.337Z,19.20
2019-06-20T06:00:43.708Z,19.30
2019-06-20T06:01:48.452Z,19.30
2019-06-20T06:02:53.740Z,19.30
2019-06-20T06:03:59.143Z,19.30
2019-06-20T06:05:04.875Z,19.30
2019-06-20T06:06:10.792Z,19.30
2019-06-20T06:07:17.437Z,19.30
2019-06-20T06:08:22.777Z,19.20
2019-06-20T06:09:27.972Z,19.20
2019-06-20T06:10:33.635Z,19.30
2019-06-20T06:11:38.900Z,19.30
2019-06-20T06:12:43.669Z,19.40
2019-06-20T06:13:49.366Z,19.30
2019-06-20T06:15:00.079Z,19.30
2019-06-20T06:16:04.451Z,19.30
2019-06-20T06:17:09.125Z,19.40
2019-06-20T06:18:17.065Z,19.40
2019-06-20T06:19:21.732Z,19.40
2019-06-20T06:20:27.455Z,19.40
2019-06-20T06:21:32.155Z,19.50
2019-06-20T06:22:37.555Z,19.50
2019-06-20T06:23:42.300Z,19.50
2019-06-20T06:24:47.524Z,19.50
2019-06-20T06:25:52.692Z,19.50
2019-06-20T06:27:04.333Z,19.50
2019-06-20T06:28:12.339Z,19.50
2019-06-20T06:29:16.731Z,19.50
2019-06-20T06:30:22.136Z,19.40
2019-06-20T06:31:27.529Z,19.40
2019-06-20T06:32:39.966Z,19.50
2019-06-20T06:33:46.634Z,19.50
2019-06-20T06:34:51.406Z,19.50
2019-06-20T06:36:02.450Z,19.50
2019-06-20T06:37:07.918Z,19.50
2019-06-20T06:38:13.289Z,19.50
2019-06-20T06:39:20.516Z,19.50
2019-06-20T06:40:26.177Z,19.50
2019-06-20T06:41:31.592Z,19.50
2019-06-20T06:42:44.533Z,19.50
2019-06-20T06:43:49.531Z,19.50
2019-06-20T06:44:55.057Z,19.50
2019-06-20T06:45:59.726Z,19.50
2019-06-20T06:47:05.164Z,19.50
2019-06-20T06:48:10.103Z,19.60
2019-06-20T06:49:16.697Z,19.60
2019-06-20T06:50:21.522Z,19.60
2019-06-20T06:51:26.822Z,19.60
2019-06-20T06:52:31.491Z,19.60
2019-06-20T06:53:36.732Z,19.60
2019-06-20T06:54:41.411Z,19.70
2019-06-20T06:55:46.727Z,19.70
2019-06-20T06:57:13.267Z,19.70
2019-06-20T06:58:18.745Z,19.70
2019-06-20T06:59:23.751Z,19.70
2019-06-20T07:00:29.789Z,19.70
2019-06-20T07:01:36.068Z,19.70
2019-06-20T07:02:41.949Z,19.70
2019-06-20T07:03:49.268Z,19.70
2019-06-20T07:04:54.835Z,19.70
2019-06-20T07:06:01.837Z,19.70
2019-06-20T07:07:07.872Z,19.70
2019-06-20T07:08:12.658Z,19.70
2019-06-20T07:09:19.874Z,19.80
2019-06-20T07:10:26.168Z,19.80
2019-06-20T07:11:31.780Z,19.80
2019-06-20T07:12:36.576Z,19.90
2019-06-20T07:13:43.630Z,19.90
2019-06-20T07:14:48.917Z,19.80
2019-06-20T07:15:54.598Z,19.80
2019-06-20T07:17:00.744Z,19.80
2019-06-20T07:18:06.700Z,19.80
2019-06-20T07:19:14.019Z,19.80
2019-06-20T07:20:20.408Z,19.90
2019-06-20T07:21:25.709Z,19.80
2019-06-20T07:22:31.848Z,19.80
2019-06-20T07:23:36.944Z,19.80
2019-06-20T07:24:42.600Z,19.80
2019-06-20T07:26:13.344Z,19.80
2019-06-20T07:27:13.499Z,19.80
2019-06-20T07:28:18.386Z,19.80
2019-06-20T07:29:23.855Z,19.70
2019-06-20T07:30:30.562Z,19.80
2019-06-20T07:31:36.715Z,19.80
2019-06-20T07:32:42.121Z,19.80
2019-06-20T07:33:47.597Z,19.80
2019-06-20T07:34:52.893Z,19.90
2019-06-20T07:35:58.243Z,19.90
2019-06-20T07:37:03.007Z,20.00
2019-06-20T07:38:08.654Z,20.00
2019-06-20T07:39:13.872Z,20.00
2019-06-20T07:40:21.238Z,20.10
2019-06-20T07:41:26.160Z,20.10
2019-06-20T07:42:31.738Z,20.10
2019-06-20T07:43:36.932Z,20.00
2019-06-20T07:44:42.400Z,20.10
2019-06-20T07:46:01.480Z,20.10
2019-06-20T07:46:59.078Z,20.10
2019-06-20T07:48:04.107Z,20.10
2019-06-20T07:49:10.646Z,20.10
2019-06-20T07:50:17.000Z,20.00
2019-06-20T07:51:22.297Z,20.10
2019-06-20T07:52:29.004Z,20.00
2019-06-20T07:53:34.500Z,20.00
2019-06-20T07:54:40.347Z,20.00
2019-06-20T07:55:45.841Z,20.10
2019-06-20T07:56:50.686Z,20.10
2019-06-20T07:57:56.172Z,20.20
2019-06-20T07:59:01.649Z,20.20
2019-06-20T08:00:10.421Z,20.30
2019-06-20T08:01:18.637Z,20.30
2019-06-20T08:03:18.390Z,20.30
2019-06-20T08:04:43.738Z,20.30
2019-06-20T08:06:58.723Z,20.40
2019-06-20T08:08:07.719Z,20.40
2019-06-20T08:09:43.939Z,20.30
2019-06-20T08:10:45.416Z,20.30
2019-06-20T08:12:01.612Z,20.40
2019-06-20T08:13:26.243Z,20.40
2019-06-20T08:14:34.180Z,20.40
2019-06-20T08:16:35.864Z,20.40
2019-06-20T08:17:47.201Z,20.40
2019-06-20T08:19:11.519Z,20.50
2019-06-20T08:20:23.407Z,20.60
2019-06-20T08:21:45.025Z,20.70
2019-06-20T08:23:41.459Z,20.70
2019-06-20T08:24:56.696Z,20.80
2019-06-20T08:26:26.390Z,20.90
2019-06-20T08:28:21.777Z,21.00
2019-06-20T08:30:11.528Z,21.10
2019-06-20T08:31:57.938Z,21.20
2019-06-20T08:33:31.960Z,21.30
2019-06-20T08:34:47.049Z,21.30
2019-06-20T08:35:58.721Z,21.30
2019-06-20T08:37:06.417Z,21.30
2019-06-20T08:38:21.645Z,21.30
2019-06-20T08:39:32.091Z,21.30
2019-06-20T08:40:44.284Z,21.30
2019-06-20T08:42:02.058Z,21.30
2019-06-20T08:43:16.304Z,21.30
2019-06-20T08:44:25.598Z,21.30
2019-06-20T08:45:43.660Z,21.30
2019-06-20T08:46:50.026Z,21.30
2019-06-20T08:47:58.266Z,21.40
2019-06-20T08:49:07.511Z,21.40
2019-06-20T08:50:15.329Z,21.40
2019-06-20T08:51:25.984Z,21.40
2019-06-20T08:52:31.354Z,21.40
2019-06-20T08:53:49.366Z,21.40
2019-06-20T08:54:56.648Z,21.40
2019-06-20T08:56:14.877Z,21.50
2019-06-20T08:57:24.443Z,21.60
2019-06-20T08:58:31.683Z,21.60
2019-06-20T08:59:58.607Z,21.60
2019-06-20T09:01:13.271Z,21.50
2019-06-20T09:02:21.219Z,21.50
2019-06-20T09:03:42.385Z,21.50
2019-06-20T09:04:55.209Z,21.30
2019-06-20T09:06:55.202Z,21.30
2019-06-20T09:08:11.505Z,21.40
2019-06-20T09:09:27.997Z,21.50
2019-06-20T09:10:45.838Z,21.60
2019-06-20T09:11:51.467Z,21.70
2019-06-20T09:12:57.298Z,21.70
2019-06-20T09:14:32.708Z,21.80
2019-06-20T09:15:41.182Z,21.80
2019-06-20T09:16:49.845Z,21.80
2019-06-20T09:17:58.484Z,21.80
2019-06-20T09:19:06.355Z,21.70
2019-06-20T09:20:22.157Z,21.60
2019-06-20T09:21:46.048Z,21.50
2019-06-20T09:22:52.344Z,21.40
2019-06-20T09:24:02.078Z,21.40
2019-06-20T09:25:09.144Z,21.40
2019-06-20T09:26:18.673Z,21.30
2019-06-20T09:27:30.789Z,21.40
2019-06-20T09:28:40.035Z,21.40
2019-06-20T09:29:54.341Z,21.40
2019-06-20T09:31:14.012Z,21.50
2019-06-20T09:32:25.089Z,21.60
2019-06-20T09:33:31.996Z,21.70
2019-06-20T09:34:40.073Z,21.70
2019-06-20T09:35:46.232Z,21.70
2019-06-20T09:37:34.236Z,21.80
2019-06-20T09:39:12.875Z,21.90
2019-06-20T09:40:31.379Z,22.00
2019-06-20T09:44:25.656Z,21.80
2019-06-20T09:45:37.774Z,21.90
2019-06-20T09:47:02.537Z,21.80
2019-06-20T09:48:18.957Z,21.80
2019-06-20T09:49:27.269Z,21.80
2019-06-20T09:52:24.548Z,21.90
2019-06-20T09:53:33.295Z,22.00
2019-06-20T09:54:48.526Z,22.00
2019-06-20T09:56:10.813Z,22.00
2019-06-20T09:57:28.468Z,22.00
2019-06-20T09:58:35.817Z,22.10
2019-06-20T09:59:55.897Z,22.30
2019-06-20T10:00:52.950Z,22.50
2019-06-20T10:02:00.645Z,22.50
2019-06-20T10:03:11.035Z,22.60
2019-06-20T10:04:50.667Z,22.70
2019-06-20T10:06:29.948Z,22.70
2019-06-20T10:08:15.677Z,22.80
2019-06-20T10:09:49.904Z,22.90
2019-06-20T10:13:25.041Z,23.10
2019-06-20T10:14:49.493Z,23.20
2019-06-20T10:15:55.663Z,23.20
2019-06-20T10:17:02.343Z,23.20
2019-06-20T10:18:09.480Z,23.20
2019-06-20T10:19:40.925Z,23.10
2019-06-20T10:23:53.941Z,23.30
2019-06-20T10:25:01.309Z,23.50
2019-06-20T10:27:16.919Z,23.60
2019-06-20T10:28:22.818Z,23.70
2019-06-20T10:29:30.132Z,23.50
2019-06-20T10:30:35.977Z,23.50
2019-06-20T10:31:41.277Z,23.50
2019-06-20T10:32:48.683Z,23.50
2019-06-20T10:33:54.288Z,23.60
2019-06-20T10:34:59.669Z,23.70
2019-06-20T10:36:05.038Z,23.80
2019-06-20T10:37:10.716Z,23.90
2019-06-20T10:38:24.416Z,24.10
2019-06-20T10:39:31.031Z,24.10
2019-06-20T10:42:13.732Z,24.30
2019-06-20T10:43:18.877Z,24.50
2019-06-20T10:44:32.873Z,24.60
2019-06-20T10:46:07.222Z,24.70
2019-06-20T10:47:28.973Z,24.50
2019-06-20T10:48:37.945Z,24.40
2019-06-20T10:49:44.709Z,24.50
2019-06-20T10:50:52.091Z,24.80
2019-06-20T10:52:00.372Z,25.50
2019-06-20T10:53:08.385Z,26.10
2019-06-20T10:54:13.766Z,26.50
2019-06-20T10:55:19.371Z,27.00
2019-06-20T10:56:25.211Z,27.20
2019-06-20T10:57:29.996Z,27.20
2019-06-20T10:58:35.843Z,27.30
2019-06-20T10:59:41.646Z,27.40
2019-06-20T11:01:00.112Z,27.20
2019-06-20T11:02:07.308Z,27.00
2019-06-20T11:03:12.783Z,26.50
2019-06-20T11:04:18.267Z,26.50
2019-06-20T11:05:24.063Z,26.50
2019-06-20T11:06:29.021Z,26.70
2019-06-20T11:07:35.688Z,26.90
2019-06-20T11:08:41.808Z,27.00
2019-06-20T11:09:57.179Z,26.90
2019-06-20T11:11:02.214Z,26.80
2019-06-20T11:12:10.519Z,26.50
2019-06-20T11:13:15.799Z,26.30
2019-06-20T11:14:24.643Z,26.00
2019-06-20T11:15:52.482Z,25.80
2019-06-20T11:16:58.741Z,25.60
2019-06-20T11:18:03.920Z,25.40
2019-06-20T11:19:09.871Z,25.20
2019-06-20T11:20:15.254Z,25.00
2019-06-20T11:21:21.817Z,24.70
2019-06-20T11:22:27.668Z,24.40
2019-06-20T11:23:34.368Z,24.50
2019-06-20T11:24:40.935Z,25.10
2019-06-20T11:25:46.688Z,26.10
2019-06-20T11:26:51.553Z,27.30
2019-06-20T11:28:10.528Z,28.20
2019-06-20T11:29:15.874Z,28.70
2019-06-20T11:30:45.006Z,28.70
2019-06-20T11:31:43.383Z,28.30
2019-06-20T11:33:15.064Z,27.80
2019-06-20T11:34:20.731Z,27.50
2019-06-20T11:35:26.209Z,27.20
2019-06-20T11:36:32.213Z,27.50
2019-06-20T11:37:45.183Z,28.20
2019-06-20T11:38:58.829Z,28.80
2019-06-20T11:40:10.192Z,29.70
2019-06-20T11:41:18.948Z,30.60
2019-06-20T11:42:24.909Z,31.20
2019-06-20T11:43:35.183Z,31.30
2019-06-20T11:44:43.840Z,30.90
2019-06-20T11:46:02.014Z,30.80
2019-06-20T11:47:07.333Z,30.60
2019-06-20T11:48:14.887Z,30.10
2019-06-20T11:49:23.163Z,29.50
2019-06-20T11:50:29.904Z,29.20
2019-06-20T11:51:35.955Z,28.70
2019-06-20T11:52:43.997Z,28.30
2019-06-20T11:53:48.130Z,27.90
2019-06-20T11:54:52.821Z,27.30
2019-06-20T11:55:58.123Z,26.70
2019-06-20T11:57:02.837Z,26.40
2019-06-20T11:58:08.128Z,26.40
2019-06-20T11:59:12.871Z,26.00
2019-06-20T12:00:18.729Z,25.80
2019-06-20T12:01:32.521Z,25.60
2019-06-20T12:02:30.822Z,25.40
2019-06-20T12:03:35.922Z,25.30
2019-06-20T12:04:41.480Z,25.20
2019-06-20T12:05:47.846Z,25.10
2019-06-20T12:06:53.219Z,25.00
2019-06-20T12:07:58.005Z,24.90
2019-06-20T12:09:04.276Z,24.60
2019-06-20T12:10:14.281Z,24.40
2019-06-20T12:11:19.866Z,24.30
2019-06-20T12:12:25.260Z,24.10
2019-06-20T12:13:30.667Z,24.10
2019-06-20T12:14:35.401Z,23.90
2019-06-20T12:15:42.753Z,23.80
2019-06-20T12:16:48.702Z,23.70
2019-06-20T12:17:54.623Z,23.70
2019-06-20T12:18:59.448Z,23.70
2019-06-20T12:20:06.365Z,23.70
2019-06-20T12:21:11.494Z,23.60
2019-06-20T12:22:16.900Z,23.60
2019-06-20T12:23:27.041Z,23.70
2019-06-20T12:24:32.329Z,23.70
2019-06-20T12:25:40.964Z,23.70
2019-06-20T12:26:48.666Z,23.80
2019-06-20T12:27:54.331Z,23.80
2019-06-20T12:28:59.842Z,23.90
2019-06-20T12:30:06.098Z,23.90
2019-06-20T12:31:19.506Z,24.00
2019-06-20T12:32:20.283Z,24.00
2019-06-20T12:33:26.040Z,24.10
2019-06-20T12:34:32.225Z,24.10
2019-06-20T12:35:41.368Z,24.10
2019-06-20T12:36:47.101Z,24.10
2019-06-20T12:37:52.838Z,24.10
2019-06-20T12:38:59.935Z,24.00
2019-06-20T12:40:10.351Z,24.00
2019-06-20T12:41:16.149Z,23.90
2019-06-20T12:42:23.840Z,23.80
2019-06-20T12:43:29.036Z,23.80
2019-06-20T12:44:34.568Z,23.70
2019-06-20T12:45:53.996Z,23.70
2019-06-20T12:46:59.871Z,23.70
2019-06-20T12:48:05.845Z,23.80
2019-06-20T12:49:11.433Z,23.80
2019-06-20T12:50:18.324Z,23.80
2019-06-20T12:51:24.293Z,23.80
2019-06-20T12:52:29.272Z,23.80
2019-06-20T12:53:35.010Z,23.70
2019-06-20T12:54:41.398Z,23.60
2019-06-20T12:55:47.530Z,23.60
2019-06-20T12:56:53.252Z,23.60
2019-06-20T12:57:58.745Z,23.60
2019-06-20T12:59:04.608Z,23.50
2019-06-20T13:00:11.370Z,23.50
2019-06-20T13:01:44.217Z,23.40
2019-06-20T13:02:49.780Z,23.40
2019-06-20T13:03:57.901Z,23.40
2019-06-20T13:05:07.187Z,23.40
2019-06-20T13:06:55.713Z,23.30
2019-06-20T13:08:02.679Z,23.30
2019-06-20T13:09:08.592Z,23.30
2019-06-20T13:10:14.067Z,23.20
2019-06-20T13:11:50.425Z,23.10
2019-06-20T13:12:56.264Z,22.90
2019-06-20T13:14:03.609Z,22.90
2019-06-20T13:15:09.271Z,22.80
2019-06-20T13:16:31.805Z,22.70
2019-06-20T13:17:38.285Z,22.60
2019-06-20T13:18:46.262Z,22.50
2019-06-20T13:19:52.373Z,22.50
2019-06-20T13:21:40.618Z,22.40
2019-06-20T13:22:58.428Z,22.30
2019-06-20T13:24:04.192Z,22.20
2019-06-20T13:25:10.277Z,22.10
2019-06-20T13:26:32.981Z,21.90
2019-06-20T13:27:41.096Z,21.80
2019-06-20T13:29:03.524Z,21.80
2019-06-20T13:32:49.483Z,21.50
2019-06-20T13:33:57.881Z,21.20
2019-06-20T13:35:05.637Z,21.10
2019-06-20T13:36:13.011Z,21.00
2019-06-20T13:37:21.457Z,20.90
2019-06-20T13:38:27.237Z,20.90
2019-06-20T13:39:32.661Z,20.90
2019-06-20T13:40:57.363Z,20.80
2019-06-20T13:42:06.487Z,20.80
2019-06-20T13:43:16.771Z,20.90
2019-06-20T13:44:44.122Z,21.00
2019-06-20T13:46:44.655Z,21.00
2019-06-20T13:47:54.942Z,21.00
2019-06-20T13:49:01.360Z,21.00
2019-06-20T13:50:10.053Z,21.20
2019-06-20T13:51:19.420Z,21.20
2019-06-20T13:52:25.854Z,21.20
2019-06-20T13:53:32.637Z,21.20
2019-06-20T13:54:39.641Z,21.30
2019-06-20T13:55:53.899Z,21.40
2019-06-20T13:57:00.145Z,21.50
2019-06-20T13:58:11.231Z,21.80
2019-06-20T13:59:16.809Z,21.50
2019-06-20T14:00:30.378Z,21.40
2019-06-20T14:01:46.111Z,21.40
2019-06-20T14:02:58.797Z,21.40
2019-06-20T14:04:07.178Z,21.20
2019-06-20T14:05:13.632Z,21.10
2019-06-20T14:06:47.414Z,21.00
2019-06-20T14:07:56.019Z,21.00
2019-06-20T14:09:02.256Z,21.00
2019-06-20T14:10:11.361Z,21.10
2019-06-20T14:11:21.744Z,21.10
2019-06-20T14:13:19.444Z,21.20
2019-06-20T14:14:26.253Z,21.20
2019-06-20T14:15:32.447Z,21.10
2019-06-20T14:16:38.407Z,21.10
2019-06-20T14:17:44.938Z,21.10
2019-06-20T14:18:50.803Z,21.10
2019-06-20T14:19:56.546Z,21.20
2019-06-20T14:21:02.883Z,21.20
2019-06-20T14:22:08.336Z,21.20
2019-06-20T14:23:14.086Z,21.20
2019-06-20T14:24:19.509Z,21.30
2019-06-20T14:25:25.573Z,21.30
2019-06-20T14:26:30.685Z,21.30
2019-06-20T14:27:36.732Z,21.30
2019-06-20T14:28:46.011Z,21.40
2019-06-20T14:29:51.929Z,21.50
2019-06-20T14:30:57.918Z,21.50
2019-06-20T14:32:04.076Z,21.50
2019-06-20T14:33:09.479Z,21.50
2019-06-20T14:34:15.617Z,21.50
2019-06-20T14:35:22.036Z,21.50
2019-06-20T14:36:27.899Z,21.30
2019-06-20T14:37:33.953Z,21.20
2019-06-20T14:38:39.501Z,21.20
2019-06-20T14:39:45.022Z,21.20
2019-06-20T14:40:52.434Z,21.20
2019-06-20T14:41:57.360Z,21.20
2019-06-20T14:43:04.432Z,21.20
2019-06-20T14:44:12.908Z,21.30
2019-06-20T14:45:21.983Z,21.20
2019-06-20T14:46:28.322Z,21.20
2019-06-20T14:47:35.126Z,21.30
2019-06-20T14:48:40.289Z,21.30
2019-06-20T14:49:46.301Z,21.30
2019-06-20T14:50:53.311Z,21.40
2019-06-20T14:52:00.195Z,21.40
2019-06-20T14:53:06.147Z,21.40
2019-06-20T14:54:12.949Z,21.40
2019-06-20T14:55:20.709Z,21.40
2019-06-20T14:56:28.926Z,21.40
2019-06-20T14:57:39.652Z,21.40
2019-06-20T14:58:49.119Z,21.40